Time;durP1;ratioP1;P1;durP2;ratioP2;P2;SDS_P1;SDS_P2;PMS_P1;PMS_P2;Temp;Humidity;BMP_temperature;BMP_pressure;BME280_temperature;BME280_humidity;BME280_pressure;Samples;Min_cycle;Max_cycle;Signal;HPM_P1;HPM_P2
2022/03/18 00:00:17;;;;;;;16.92;7.22;;;14.60;99.90;;;;;;5047099;28;20067;-74
2022/03/18 00:02:52;;;;;;;16.15;6.25;;;14.60;99.90;;;;;;5046540;28;20045;-75
2022/03/18 00:05:18;;;;;;;19.10;6.38;;;14.70;99.90;;;;;;5067208;28;20045;-75
2022/03/18 00:07:46;;;;;;;11.30;5.18;;;14.70;99.90;;;;;;5051505;28;20059;-74
2022/03/18 00:10:14;;;;;;;19.48;5.95;;;14.60;99.90;;;;;;5051547;28;20036;-74
2022/03/18 00:12:40;;;;;;;16.88;6.65;;;14.60;99.90;;;;;;5048077;28;20029;-75
2022/03/18 00:15:08;;;;;;;16.55;6.10;;;14.60;99.90;;;;;;5059214;28;20120;-76
2022/03/18 00:17:34;;;;;;;15.40;6.05;;;14.60;99.90;;;;;;5044764;28;20040;-75
2022/03/18 00:20:00;;;;;;;17.83;6.28;;;14.60;99.90;;;;;;5047958;28;20066;-75
2022/03/18 00:22:26;;;;;;;18.65;5.88;;;14.60;99.90;;;;;;5040565;28;20127;-74
2022/03/18 00:24:52;;;;;;;12.65;5.43;;;14.60;99.90;;;;;;5061916;28;20044;-74
2022/03/18 00:27:18;;;;;;;19.67;5.93;;;14.70;99.90;;;;;;5048294;28;20492;-74
2022/03/18 00:29:43;;;;;;;17.75;6.32;;;14.70;99.90;;;;;;5059538;28;20071;-75
2022/03/18 00:32:10;;;;;;;20.08;6.30;;;14.70;99.90;;;;;;5036314;28;20043;-75
2022/03/18 00:34:36;;;;;;;20.17;6.35;;;14.70;99.90;;;;;;5038284;28;20056;-75
2022/03/18 00:37:02;;;;;;;15.80;6.47;;;14.70;99.90;;;;;;5053977;28;20093;-75
2022/03/18 00:39:28;;;;;;;18.60;6.25;;;14.70;99.90;;;;;;5061331;28;20059;-76
2022/03/18 00:41:54;;;;;;;15.50;5.50;;;14.70;99.90;;;;;;5055827;28;20439;-74
2022/03/18 00:44:20;;;;;;;16.20;5.65;;;14.70;99.90;;;;;;5057850;28;20135;-76
2022/03/18 00:46:46;;;;;;;16.80;5.70;;;14.60;99.90;;;;;;5061594;28;20127;-75
2022/03/18 00:52:06;;;;;;;18.17;5.80;;;14.70;99.90;;;;;;5062319;28;20452;-74
2022/03/18 00:54:37;;;;;;;18.77;5.50;;;14.60;99.90;;;;;;5045136;28;20047;-75
2022/03/18 00:57:04;;;;;;;15.27;5.63;;;14.70;99.90;;;;;;5038436;28;20095;-75
2022/03/18 00:59:31;;;;;;;17.00;5.88;;;14.60;99.90;;;;;;5055690;28;20033;-75
2022/03/18 01:01:57;;;;;;;19.27;5.90;;;14.60;99.90;;;;;;5046941;28;20140;-74
2022/03/18 01:04:25;;;;;;;15.80;5.25;;;14.60;99.90;;;;;;5072609;28;20216;-72
2022/03/18 01:06:54;;;;;;;16.92;4.85;;;14.60;99.90;;;;;;5078613;28;20036;-71
2022/03/18 01:09:21;;;;;;;17.40;5.32;;;14.60;99.90;;;;;;5063860;28;20380;-74
2022/03/18 01:11:50;;;;;;;18.60;5.78;;;14.60;99.90;;;;;;5056747;28;20040;-72
2022/03/18 01:14:17;;;;;;;15.07;5.85;;;14.60;99.90;;;;;;5038665;28;20074;-73
2022/03/18 01:16:43;;;;;;;15.23;5.38;;;14.60;99.90;;;;;;5057571;28;20068;-72
2022/03/18 01:19:09;;;;;;;15.60;5.15;;;14.60;99.90;;;;;;5060658;28;20095;-72
2022/03/18 01:21:36;;;;;;;19.15;5.88;;;14.60;99.90;;;;;;5052680;28;20067;-73
2022/03/18 01:24:02;;;;;;;15.95;6.10;;;14.60;99.90;;;;;;5051148;28;20067;-73
2022/03/18 01:26:29;;;;;;;16.92;5.60;;;14.60;99.90;;;;;;5063336;28;20108;-72
2022/03/18 01:28:56;;;;;;;19.05;5.70;;;14.60;99.90;;;;;;5051873;28;20521;-73
2022/03/18 01:31:23;;;;;;;16.73;5.38;;;14.60;99.90;;;;;;5052618;28;20510;-73
2022/03/18 01:33:49;;;;;;;12.45;5.57;;;14.60;99.90;;;;;;5056265;28;20503;-73
2022/03/18 01:36:15;;;;;;;16.75;5.78;;;14.60;99.90;;;;;;5036988;28;20064;-72
2022/03/18 01:38:41;;;;;;;12.95;5.63;;;14.60;99.90;;;;;;5055464;28;20531;-73
2022/03/18 01:41:07;;;;;;;16.42;5.72;;;14.50;99.90;;;;;;5053314;28;20044;-72
2022/03/18 01:43:38;;;;;;;13.70;5.10;;;14.50;99.90;;;;;;5061269;28;20519;-73
2022/03/18 01:46:05;;;;;;;19.48;5.50;;;14.50;99.90;;;;;;5043107;28;20071;-72
2022/03/18 01:48:30;;;;;;;20.25;5.70;;;14.60;99.90;;;;;;5056283;28;20393;-72
2022/03/18 01:50:56;;;;;;;17.90;5.45;;;14.50;99.90;;;;;;5054385;28;20036;-73
2022/03/18 01:53:22;;;;;;;21.45;6.20;;;14.50;99.90;;;;;;5071243;28;20037;-72
2022/03/18 01:55:48;;;;;;;18.75;5.70;;;14.50;99.90;;;;;;5079990;28;20040;-73
2022/03/18 01:58:14;;;;;;;19.95;5.82;;;14.50;99.90;;;;;;5076702;28;20571;-73
2022/03/18 02:00:40;;;;;;;14.60;5.30;;;14.50;99.90;;;;;;5068403;28;20036;-72
2022/03/18 02:03:06;;;;;;;20.88;5.68;;;14.50;99.90;;;;;;5071960;28;20094;-72
2022/03/18 02:05:32;;;;;;;14.35;5.63;;;14.50;99.90;;;;;;5057594;28;20213;-72
2022/03/18 02:07:57;;;;;;;17.50;5.82;;;14.50;99.90;;;;;;5073686;28;20143;-73
2022/03/18 02:10:23;;;;;;;16.45;6.13;;;14.50;99.90;;;;;;5053590;28;20034;-73
2022/03/18 02:12:49;;;;;;;14.07;5.70;;;14.50;99.90;;;;;;5074623;28;20040;-73
2022/03/18 02:15:15;;;;;;;17.98;5.47;;;14.40;99.90;;;;;;5070883;28;20033;-72
2022/03/18 02:17:41;;;;;;;14.90;5.13;;;14.40;99.90;;;;;;5052833;28;20040;-73
2022/03/18 02:20:07;;;;;;;17.20;6.03;;;14.40;99.90;;;;;;5064117;28;20185;-72
2022/03/18 02:22:45;;;;;;;17.50;5.78;;;14.40;99.90;;;;;;5047087;28;20028;-73
2022/03/18 02:25:12;;;;;;;16.80;5.60;;;14.40;99.90;;;;;;5055424;28;20037;-73
2022/03/18 02:27:56;;;;;;;15.88;5.65;;;14.30;99.90;;;;;;5034570;28;20119;-74
2022/03/18 02:30:22;;;;;;;21.38;6.63;;;14.40;99.90;;;;;;5054819;28;20052;-74
2022/03/18 02:32:48;;;;;;;15.68;6.80;;;14.40;99.90;;;;;;5052816;28;20113;-73
2022/03/18 02:35:14;;;;;;;14.40;5.85;;;14.40;99.90;;;;;;5038269;28;20057;-74
2022/03/18 02:37:39;;;;;;;18.73;5.72;;;14.30;99.90;;;;;;5053123;28;20043;-74
2022/03/18 02:40:06;;;;;;;16.20;6.07;;;14.40;99.90;;;;;;5052563;28;20040;-73
2022/03/18 02:42:32;;;;;;;16.90;5.82;;;14.30;99.90;;;;;;5054315;28;20032;-73
2022/03/18 02:44:58;;;;;;;19.00;6.20;;;14.30;99.90;;;;;;5032994;28;20037;-73
2022/03/18 02:47:24;;;;;;;16.75;5.72;;;14.20;99.90;;;;;;5036552;28;20489;-73
2022/03/18 02:49:50;;;;;;;16.77;5.78;;;14.30;99.90;;;;;;5038932;28;20426;-73
2022/03/18 02:52:16;;;;;;;20.98;5.57;;;14.30;99.90;;;;;;5067123;28;20044;-73
2022/03/18 02:54:43;;;;;;;14.82;5.55;;;14.20;99.90;;;;;;5056701;28;20056;-73
2022/03/18 02:57:09;;;;;;;17.65;5.55;;;14.20;99.90;;;;;;5053993;28;20037;-73
2022/03/18 02:59:35;;;;;;;19.40;5.95;;;14.20;99.90;;;;;;5055239;28;20098;-73
2022/03/18 03:02:01;;;;;;;20.42;5.35;;;14.20;99.90;;;;;;5055431;28;20032;-73
2022/03/18 03:04:27;;;;;;;14.45;5.32;;;14.20;99.90;;;;;;5055911;28;20059;-73
2022/03/18 03:09:37;;;;;;;13.80;5.53;;;14.20;99.90;;;;;;5055835;28;20048;-73
2022/03/18 03:12:04;;;;;;;17.35;6.00;;;14.20;99.90;;;;;;5030113;28;20036;-73
2022/03/18 03:14:29;;;;;;;13.52;5.90;;;14.20;99.90;;;;;;5054230;28;20125;-73
2022/03/18 03:16:55;;;;;;;16.05;5.05;;;14.20;99.90;;;;;;5041492;28;20447;-73
2022/03/18 03:19:21;;;;;;;16.98;5.68;;;14.20;99.90;;;;;;5056183;28;20968;-74
2022/03/18 03:21:47;;;;;;;16.25;5.28;;;14.20;99.90;;;;;;5055060;28;20671;-73
2022/03/18 03:24:14;;;;;;;20.45;5.63;;;14.20;99.90;;;;;;5057079;28;20041;-74
2022/03/18 03:26:40;;;;;;;14.00;5.07;;;14.10;99.90;;;;;;5058934;28;20040;-74
2022/03/18 03:29:06;;;;;;;10.82;5.07;;;14.10;99.90;;;;;;5054695;28;20353;-74
2022/03/18 03:31:32;;;;;;;19.90;5.40;;;14.10;99.90;;;;;;5052823;28;20041;-74
2022/03/18 03:33:58;;;;;;;13.25;5.22;;;14.10;99.90;;;;;;5075680;28;20048;-73
2022/03/18 03:36:23;;;;;;;13.32;5.50;;;14.10;99.90;;;;;;5038361;28;20052;-74
2022/03/18 03:38:50;;;;;;;11.13;4.90;;;14.10;99.90;;;;;;5059645;28;20052;-74
2022/03/18 03:41:18;;;;;;;11.07;4.97;;;14.10;99.90;;;;;;5037844;28;20068;-73
2022/03/18 03:43:44;;;;;;;16.40;5.55;;;14.10;99.90;;;;;;5056879;28;20219;-73
2022/03/18 03:46:10;;;;;;;12.20;5.95;;;14.10;99.90;;;;;;5046697;28;20486;-75
2022/03/18 03:48:36;;;;;;;15.90;5.50;;;14.10;99.90;;;;;;5060213;28;20108;-73
2022/03/18 03:51:02;;;;;;;12.05;5.53;;;14.10;99.90;;;;;;5039183;28;20043;-73
2022/03/18 03:53:27;;;;;;;13.27;5.32;;;14.10;99.90;;;;;;5044408;28;20033;-73
2022/03/18 03:55:54;;;;;;;15.70;5.53;;;14.10;99.90;;;;;;5070917;28;20041;-73
2022/03/18 03:58:20;;;;;;;11.75;5.03;;;14.10;99.90;;;;;;5070928;28;20064;-73
2022/03/18 04:00:47;;;;;;;12.52;5.05;;;14.10;99.90;;;;;;5063225;28;20087;-74
2022/03/18 04:03:14;;;;;;;13.93;5.65;;;14.10;99.90;;;;;;5075668;28;20043;-74
2022/03/18 04:05:40;;;;;;;14.68;5.50;;;14.10;99.90;;;;;;5058194;28;20048;-73
2022/03/18 04:08:06;;;;;;;13.63;5.50;;;14.10;99.90;;;;;;5052038;28;20040;-73
2022/03/18 04:10:33;;;;;;;16.10;5.60;;;14.10;99.90;;;;;;5058492;28;20614;-73
2022/03/18 04:12:59;;;;;;;16.17;5.53;;;14.20;99.90;;;;;;5057166;28;20607;-72
2022/03/18 04:15:26;;;;;;;12.23;5.63;;;14.20;99.90;;;;;;5053180;28;20127;-72
2022/03/18 04:17:52;;;;;;;15.70;6.75;;;14.10;99.90;;;;;;5073983;28;20051;-72
2022/03/18 04:20:24;;;;;;;15.50;6.65;;;14.20;99.90;;;;;;5040503;28;20064;-73
2022/03/18 04:22:51;;;;;;;12.98;5.63;;;14.10;99.90;;;;;;5051978;28;20101;-73
2022/03/18 04:25:17;;;;;;;16.27;6.30;;;14.10;99.90;;;;;;5078223;28;20032;-72
2022/03/18 04:27:43;;;;;;;12.98;5.40;;;14.10;99.90;;;;;;5059028;28;20044;-72
2022/03/18 04:30:13;;;;;;;12.40;5.63;;;14.10;99.90;;;;;;5058271;28;20562;-72
2022/03/18 04:32:39;;;;;;;14.55;5.32;;;14.10;99.90;;;;;;5077184;28;20032;-73
2022/03/18 04:35:06;;;;;;;17.80;6.30;;;14.10;99.90;;;;;;5061962;28;20040;-72
2022/03/18 04:37:33;;;;;;;13.70;5.85;;;14.10;99.90;;;;;;5074860;28;20086;-72
2022/03/18 04:39:58;;;;;;;15.85;5.53;;;14.10;99.90;;;;;;5075621;28;20067;-72
2022/03/18 04:42:24;;;;;;;15.18;5.50;;;14.10;99.90;;;;;;5075837;28;20125;-74
2022/03/18 04:44:51;;;;;;;11.30;5.32;;;14.00;99.90;;;;;;5060816;28;20063;-73
2022/03/18 04:47:17;;;;;;;15.02;5.60;;;14.00;99.90;;;;;;5064391;28;20036;-74
2022/03/18 04:49:42;;;;;;;14.55;5.20;;;14.00;99.90;;;;;;5064972;28;20109;-73
2022/03/18 04:52:08;;;;;;;15.15;5.40;;;14.00;99.90;;;;;;5074273;28;20032;-73
2022/03/18 04:54:34;;;;;;;12.68;5.53;;;14.00;99.90;;;;;;5058883;28;20037;-72
2022/03/18 04:57:15;;;;;;;14.10;5.68;;;14.00;99.90;;;;;;5079551;28;20037;-73
2022/03/18 04:59:41;;;;;;;13.10;6.40;;;14.00;99.90;;;;;;5077804;28;20044;-73
2022/03/18 05:02:10;;;;;;;12.23;5.28;;;14.00;99.90;;;;;;5081050;28;20188;-73
2022/03/18 05:04:37;;;;;;;16.45;5.03;;;14.00;99.90;;;;;;5081057;28;20040;-73
2022/03/18 05:07:04;;;;;;;14.73;5.57;;;14.00;99.90;;;;;;5075325;28;20534;-73
2022/03/18 05:09:30;;;;;;;15.18;6.30;;;14.00;99.90;;;;;;5061478;28;20036;-73
2022/03/18 05:11:56;;;;;;;13.45;5.68;;;14.10;99.90;;;;;;5055934;28;20065;-73
2022/03/18 05:14:22;;;;;;;16.48;5.25;;;14.10;99.90;;;;;;5059183;28;20040;-73
2022/03/18 05:16:49;;;;;;;17.00;5.75;;;14.20;99.90;;;;;;5061573;28;20070;-73
2022/03/18 05:19:15;;;;;;;15.75;5.70;;;14.20;99.90;;;;;;5076717;28;20090;-72
2022/03/18 05:21:41;;;;;;;14.43;6.28;;;14.20;99.90;;;;;;5079830;28;20449;-73
2022/03/18 05:24:07;;;;;;;21.52;6.13;;;14.20;99.90;;;;;;5078785;28;20044;-73
2022/03/18 05:26:34;;;;;;;24.25;7.07;;;14.20;99.90;;;;;;5076163;28;20130;-74
2022/03/18 05:29:01;;;;;;;16.33;6.30;;;14.20;99.90;;;;;;5077692;28;20040;-74
2022/03/18 05:31:27;;;;;;;19.98;6.25;;;14.20;99.90;;;;;;5043178;28;20033;-73
2022/03/18 05:33:54;;;;;;;18.05;6.80;;;14.20;99.90;;;;;;5022518;28;20211;-72
2022/03/18 05:36:21;;;;;;;21.38;6.90;;;14.20;99.90;;;;;;5027941;28;20036;-73
2022/03/18 05:38:47;;;;;;;20.75;6.65;;;14.20;99.90;;;;;;5058086;28;20124;-72
2022/03/18 05:41:13;;;;;;;25.27;6.75;;;14.20;99.90;;;;;;5053606;28;20486;-74
2022/03/18 05:43:40;;;;;;;17.60;6.97;;;14.20;99.90;;;;;;5056811;28;20041;-73
2022/03/18 05:46:07;;;;;;;16.98;6.85;;;14.20;99.90;;;;;;5060217;28;20086;-73
2022/03/18 05:48:33;;;;;;;14.35;6.13;;;14.10;99.90;;;;;;5060183;28;20388;-73
2022/03/18 05:51:00;;;;;;;18.73;6.22;;;14.10;99.90;;;;;;5060257;28;20051;-74
2022/03/18 05:53:28;;;;;;;21.80;6.65;;;14.10;99.90;;;;;;5073187;28;20029;-72
2022/03/18 05:58:40;;;;;;;20.25;7.65;;;14.10;99.90;;;;;;5075345;28;20518;-73
2022/03/18 06:01:05;;;;;;;17.55;6.50;;;14.10;99.90;;;;;;5065169;28;20492;-73
2022/03/18 06:03:33;;;;;;;15.80;6.90;;;14.20;99.90;;;;;;5080533;28;20032;-74
2022/03/18 06:05:59;;;;;;;20.17;6.72;;;14.10;99.90;;;;;;5054124;28;20041;-74
2022/03/18 06:13:54;;;;;;;18.35;7.93;;;14.10;99.90;;;;;;5058581;28;20068;-73
2022/03/18 06:16:20;;;;;;;25.50;7.15;;;14.10;99.90;;;;;;5056538;28;20056;-74
2022/03/18 06:18:46;;;;;;;18.52;7.10;;;14.10;99.90;;;;;;5052398;28;20048;-73
2022/03/18 06:21:15;;;;;;;31.90;7.40;;;14.10;99.90;;;;;;5023296;28;20048;-74
2022/03/18 06:23:41;;;;;;;23.80;7.65;;;14.10;99.90;;;;;;5043982;28;20364;-73
2022/03/18 06:26:07;;;;;;;19.63;6.95;;;14.10;99.90;;;;;;5045609;28;20147;-73
2022/03/18 06:28:33;;;;;;;20.42;8.38;;;14.10;99.90;;;;;;5044568;28;20188;-73
2022/03/18 06:30:59;;;;;;;19.77;7.72;;;14.10;99.90;;;;;;5069481;28;20029;-73
2022/03/18 06:33:27;;;;;;;22.17;7.90;;;14.20;99.90;;;;;;5037627;28;20734;-75
2022/03/18 06:35:53;;;;;;;22.92;7.80;;;14.20;99.90;;;;;;5068499;28;20036;-73
2022/03/18 06:38:20;;;;;;;22.15;7.25;;;14.20;99.90;;;;;;5060131;28;20108;-75
2022/03/18 06:40:46;;;;;;;20.58;7.70;;;14.20;99.90;;;;;;5042254;28;20524;-74
2022/03/18 06:43:12;;;;;;;22.90;7.95;;;14.30;99.90;;;;;;5055424;28;20120;-76
2022/03/18 06:45:38;;;;;;;23.25;9.00;;;14.30;99.90;;;;;;5053428;28;20091;-75
2022/03/18 06:48:04;;;;;;;21.00;7.85;;;14.30;99.90;;;;;;5043732;28;20078;-73
2022/03/18 06:50:30;;;;;;;18.50;7.97;;;14.30;99.90;;;;;;5058166;28;20027;-75
2022/03/18 06:52:56;;;;;;;22.70;7.05;;;14.30;99.90;;;;;;5053816;28;20423;-74
2022/03/18 06:55:22;;;;;;;23.92;8.30;;;14.40;99.90;;;;;;5051145;28;20065;-76
2022/03/18 06:57:48;;;;;;;14.32;7.30;;;14.40;99.90;;;;;;5033268;28;20808;-77
2022/03/18 07:00:14;;;;;;;24.00;7.60;;;14.40;99.90;;;;;;5051567;28;20473;-77
2022/03/18 07:02:40;;;;;;;19.10;7.22;;;14.40;99.90;;;;;;5056235;28;20037;-76
2022/03/18 07:05:07;;;;;;;20.58;7.32;;;14.50;99.90;;;;;;5053410;28;20045;-77
2022/03/18 07:07:33;;;;;;;19.45;8.07;;;14.50;99.90;;;;;;5057989;28;20136;-76
2022/03/18 07:09:58;;;;;;;20.42;7.72;;;14.50;99.90;;;;;;5060105;28;20510;-76
2022/03/18 07:12:24;;;;;;;21.73;7.43;;;14.60;99.90;;;;;;5054727;28;20041;-77
2022/03/18 07:14:50;;;;;;;20.77;7.82;;;14.60;99.90;;;;;;5046520;28;20033;-76
2022/03/18 07:20:00;;;;;;;16.45;8.75;;;14.70;99.90;;;;;;5044965;28;20090;-76
2022/03/18 07:22:26;;;;;;;22.05;7.45;;;14.70;99.90;;;;;;5074496;28;20056;-76
2022/03/18 07:24:52;;;;;;;20.77;7.45;;;14.80;99.90;;;;;;5061292;28;20110;-77
2022/03/18 07:27:18;;;;;;;19.05;8.30;;;14.80;99.90;;;;;;5041305;28;20041;-76
2022/03/18 07:29:44;;;;;;;20.30;7.85;;;14.90;99.90;;;;;;5041302;28;20044;-75
2022/03/18 07:32:09;;;;;;;24.35;7.53;;;14.90;99.90;;;;;;5053689;28;20040;-76
2022/03/18 07:34:36;;;;;;;23.40;7.75;;;15.00;99.90;;;;;;5048090;28;20041;-76
2022/03/18 07:37:03;;;;;;;26.35;7.72;;;15.10;99.90;;;;;;5037897;28;20060;-76
2022/03/18 07:39:29;;;;;;;21.30;8.05;;;15.20;99.90;;;;;;5059218;28;20703;-76
2022/03/18 07:41:55;;;;;;;22.55;8.00;;;15.20;99.90;;;;;;5072427;28;20045;-75
2022/03/18 07:44:20;;;;;;;24.10;8.13;;;15.30;99.90;;;;;;5067400;28;20044;-76
2022/03/18 07:46:46;;;;;;;27.30;8.30;;;15.40;99.90;;;;;;5042117;28;20048;-76
2022/03/18 07:49:12;;;;;;;22.17;8.13;;;15.30;99.90;;;;;;5042632;28;20044;-75
2022/03/18 07:51:38;;;;;;;21.55;7.30;;;15.40;99.90;;;;;;5065131;28;20029;-76
2022/03/18 07:54:04;;;;;;;21.58;7.68;;;15.30;99.90;;;;;;5043586;28;20028;-77
2022/03/18 07:56:30;;;;;;;24.27;8.25;;;15.30;99.90;;;;;;5072611;28;20123;-76
2022/03/18 07:58:56;;;;;;;17.02;7.78;;;15.30;99.90;;;;;;5057530;28;20036;-76
2022/03/18 08:01:23;;;;;;;18.30;7.10;;;15.40;99.90;;;;;;5054324;28;24969;-76
2022/03/18 08:03:49;;;;;;;23.48;7.82;;;15.40;99.90;;;;;;5050181;28;20049;-76
2022/03/18 08:06:15;;;;;;;24.75;7.47;;;15.40;99.90;;;;;;5060256;28;20446;-76
2022/03/18 08:08:42;;;;;;;24.45;7.68;;;15.50;99.90;;;;;;5064468;28;20059;-76
2022/03/18 08:11:09;;;;;;;26.63;6.88;;;15.60;99.90;;;;;;5058641;28;20033;-76
2022/03/18 08:13:35;;;;;;;18.55;6.97;;;15.60;99.90;;;;;;5062483;28;20060;-78
2022/03/18 08:16:01;;;;;;;22.75;7.55;;;15.70;99.90;;;;;;5062511;28;20052;-76
2022/03/18 08:18:28;;;;;;;20.15;7.55;;;15.90;99.90;;;;;;5047795;28;20123;-76
2022/03/18 08:20:54;;;;;;;25.35;8.73;;;15.90;99.90;;;;;;5080368;28;20489;-76
2022/03/18 08:23:20;;;;;;;19.00;7.85;;;16.10;99.90;;;;;;5045596;28;20128;-76
2022/03/18 08:25:46;;;;;;;21.38;7.43;;;16.30;99.90;;;;;;5073460;28;20373;-75
2022/03/18 08:28:12;;;;;;;20.70;7.03;;;16.70;99.90;;;;;;5059467;28;20083;-76
2022/03/18 08:30:40;;;;;;;19.65;7.35;;;16.90;99.90;;;;;;5058304;28;20025;-76
2022/03/18 08:33:06;;;;;;;23.83;7.13;;;17.10;99.90;;;;;;5059143;28;20502;-76
2022/03/18 08:35:32;;;;;;;16.60;5.90;;;17.30;99.90;;;;;;5051606;28;20071;-75
2022/03/18 08:37:58;;;;;;;25.23;6.82;;;17.90;99.90;;;;;;5042859;28;20045;-76
2022/03/18 08:40:33;;;;;;;19.52;6.38;;;18.10;99.90;;;;;;5058764;28;20044;-75
2022/03/18 08:43:01;;;;;;;20.58;7.75;;;17.90;99.90;;;;;;5079076;28;20044;-76
2022/03/18 08:45:29;;;;;;;17.83;6.30;;;17.80;99.90;;;;;;5064598;28;20037;-77
2022/03/18 08:47:55;;;;;;;17.40;6.35;;;17.60;99.90;;;;;;5048465;28;20044;-76
2022/03/18 08:50:21;;;;;;;22.90;6.10;;;17.70;99.90;;;;;;5079424;28;20115;-79
2022/03/18 08:52:49;;;;;;;19.70;6.63;;;17.70;99.90;;;;;;5077758;28;20403;-77
2022/03/18 08:55:16;;;;;;;16.73;6.35;;;17.60;99.90;;;;;;5079357;28;20041;-77
2022/03/18 08:57:42;;;;;;;24.40;6.82;;;17.50;99.90;;;;;;5065210;28;20033;-77
2022/03/18 09:00:11;;;;;;;14.52;6.05;;;17.30;99.90;;;;;;5058719;28;20051;-75
2022/03/18 09:02:38;;;;;;;18.20;6.72;;;17.30;99.90;;;;;;5063204;28;20552;-75
2022/03/18 09:05:06;;;;;;;16.42;6.82;;;17.40;99.90;;;;;;5059101;28;20052;-76
2022/03/18 09:07:32;;;;;;;18.75;6.47;;;17.30;99.90;;;;;;5056932;28;20048;-76
2022/03/18 09:09:58;;;;;;;17.20;6.43;;;17.30;99.90;;;;;;5061415;28;20067;-75
2022/03/18 09:12:25;;;;;;;18.00;6.18;;;17.20;99.90;;;;;;5058579;28;20044;-77
2022/03/18 09:14:50;;;;;;;14.18;5.80;;;17.20;99.90;;;;;;5057531;28;20893;-76
2022/03/18 09:17:16;;;;;;;20.08;6.07;;;17.20;99.90;;;;;;5062414;28;20098;-76
2022/03/18 09:19:42;;;;;;;15.50;5.85;;;17.10;99.90;;;;;;5061153;28;20042;-76
2022/03/18 09:22:09;;;;;;;12.70;5.57;;;17.10;99.90;;;;;;5055251;28;20052;-76
2022/03/18 09:24:36;;;;;;;12.25;5.22;;;17.00;99.90;;;;;;5061910;28;20051;-75
2022/03/18 09:27:02;;;;;;;13.63;5.63;;;16.90;99.90;;;;;;5038080;28;20063;-77
2022/03/18 09:29:28;;;;;;;14.23;5.53;;;16.80;99.90;;;;;;5055652;28;20148;-75
2022/03/18 09:31:54;;;;;;;18.63;5.85;;;16.70;99.90;;;;;;5055783;28;20488;-76
2022/03/18 09:34:24;;;;;;;15.63;5.93;;;16.70;99.90;;;;;;5057631;28;20083;-76
2022/03/18 09:36:55;;;;;;;16.08;5.90;;;16.60;99.90;;;;;;5037997;28;20071;-75
2022/03/18 09:39:22;;;;;;;16.27;5.93;;;16.60;99.90;;;;;;5052623;28;20044;-76
2022/03/18 09:41:48;;;;;;;15.20;6.35;;;16.60;99.90;;;;;;5043758;28;20056;-76
2022/03/18 09:44:14;;;;;;;19.73;5.88;;;16.60;99.90;;;;;;5053420;28;20033;-75
2022/03/18 09:46:41;;;;;;;15.30;5.60;;;16.50;99.90;;;;;;5038736;28;20461;-75
2022/03/18 09:49:11;;;;;;;12.40;5.70;;;16.40;99.90;;;;;;5013420;28;20515;-75
2022/03/18 09:51:42;;;;;;;18.27;5.82;;;16.30;99.90;;;;;;5055808;28;20044;-75
2022/03/18 09:54:12;;;;;;;15.35;5.68;;;16.20;99.90;;;;;;5056166;28;20043;-74
2022/03/18 09:56:43;;;;;;;21.42;5.93;;;16.10;99.90;;;;;;5044008;28;20052;-76
2022/03/18 09:59:10;;;;;;;19.42;6.32;;;16.10;99.90;;;;;;5042743;28;20064;-76
2022/03/18 10:01:37;;;;;;;16.63;6.38;;;16.10;99.90;;;;;;5049388;28;20046;-75
2022/03/18 10:04:07;;;;;;;24.75;7.25;;;16.10;99.90;;;;;;5044248;28;20048;-75
2022/03/18 10:06:34;;;;;;;16.67;6.53;;;16.30;99.90;;;;;;5041869;28;20047;-76
2022/03/18 10:09:01;;;;;;;18.27;6.40;;;16.20;99.90;;;;;;5057381;28;20037;-75
2022/03/18 10:11:32;;;;;;;15.68;6.00;;;16.20;99.90;;;;;;5028387;28;20036;-75
2022/03/18 10:14:08;;;;;;;24.00;6.28;;;16.30;99.90;;;;;;5040614;28;20411;-76
2022/03/18 10:16:37;;;;;;;15.13;6.63;;;16.30;99.90;;;;;;5050636;28;20128;-75
2022/03/18 10:19:07;;;;;;;18.48;6.90;;;16.40;99.90;;;;;;5049562;28;20064;-75
2022/03/18 10:21:48;;;;;;;19.77;7.57;;;16.40;99.90;;;;;;5043406;28;20118;-74
2022/03/18 10:24:14;;;;;;;19.95;6.50;;;16.60;99.90;;;;;;5035149;28;20043;-75
2022/03/18 10:26:41;;;;;;;18.83;6.30;;;16.60;99.90;;;;;;5047278;28;20036;-76
2022/03/18 10:29:11;;;;;;;19.88;6.50;;;16.70;99.90;;;;;;5027227;28;20595;-75
2022/03/18 10:31:40;;;;;;;23.92;6.68;;;16.70;99.90;;;;;;5049717;28;20094;-75
2022/03/18 10:37:14;;;;;;;16.70;6.00;;;16.60;99.90;;;;;;5044424;28;20042;-75
2022/03/18 10:39:42;;;;;;;17.38;6.25;;;16.60;99.90;;;;;;5050103;28;20169;-75
2022/03/18 10:42:13;;;;;;;15.05;6.43;;;16.60;99.90;;;;;;5034743;28;20711;-75
2022/03/18 10:44:48;;;;;;;13.63;5.80;;;16.50;99.90;;;;;;5037918;28;20155;-76
2022/03/18 10:47:29;;;;;;;19.85;6.45;;;16.50;99.90;;;;;;5046453;28;20047;-75
2022/03/18 10:50:21;;;;;;;19.85;6.38;;;16.40;99.90;;;;;;5050808;28;20068;-76
2022/03/18 10:52:51;;;;;;;15.75;6.13;;;16.30;99.90;;;;;;5040204;28;23942;-76
2022/03/18 10:55:20;;;;;;;17.30;6.72;;;16.40;99.90;;;;;;5050241;28;20107;-76
2022/03/18 10:58:06;;;;;;;22.48;6.88;;;16.30;99.90;;;;;;5053389;28;20117;-76
2022/03/18 11:00:34;;;;;;;20.88;6.88;;;16.30;99.90;;;;;;5047493;28;20040;-76
2022/03/18 11:03:01;;;;;;;18.00;6.63;;;16.30;99.90;;;;;;5042922;28;20076;-75
2022/03/18 11:05:32;;;;;;;22.58;6.45;;;16.40;99.90;;;;;;5031686;28;20560;-76
2022/03/18 11:08:04;;;;;;;13.32;6.10;;;16.40;99.90;;;;;;5042799;28;20075;-76
2022/03/18 11:13:21;;;;;;;15.43;6.53;;;16.50;99.90;;;;;;5044291;28;20127;-76
2022/03/18 11:15:49;;;;;;;20.30;6.95;;;16.60;99.90;;;;;;5054851;28;20059;-75
2022/03/18 11:18:15;;;;;;;20.45;6.05;;;16.60;99.90;;;;;;5073787;28;20140;-77
2022/03/18 11:20:43;;;;;;;19.33;6.10;;;16.50;99.90;;;;;;5049127;28;20033;-75
2022/03/18 11:23:24;;;;;;;22.10;6.55;;;16.40;99.90;;;;;;5046255;28;20128;-76
2022/03/18 11:25:54;;;;;;;17.55;5.75;;;16.40;99.90;;;;;;5049258;28;20135;-76
2022/03/18 11:28:21;;;;;;;16.17;6.60;;;16.60;99.90;;;;;;5066994;28;20032;-76
2022/03/18 11:30:49;;;;;;;18.77;7.35;;;16.90;99.90;;;;;;5046195;28;20111;-74
2022/03/18 11:33:14;;;;;;;17.17;6.75;;;17.30;99.90;;;;;;5048091;28;20048;-76
2022/03/18 11:35:52;;;;;;;15.20;6.13;;;17.40;99.90;;;;;;5053112;28;20557;-76
2022/03/18 11:38:46;;;;;;;19.80;6.20;;;17.60;99.90;;;;;;5046458;28;20041;-75
2022/03/18 11:41:14;;;;;;;22.77;7.30;;;17.60;99.90;;;;;;5049965;28;20032;-76
2022/03/18 11:43:43;;;;;;;22.05;6.10;;;17.60;99.90;;;;;;5052806;28;20086;-76
2022/03/18 11:46:19;;;;;;;29.02;7.28;;;17.60;99.90;;;;;;5046903;28;20048;-75
2022/03/18 11:49:08;;;;;;;24.65;7.10;;;17.60;99.90;;;;;;5049169;28;20073;-75
2022/03/18 11:51:36;;;;;;;20.85;6.50;;;17.60;99.90;;;;;;5034028;28;20078;-76
2022/03/18 11:54:10;;;;;;;21.65;6.60;;;17.80;99.90;;;;;;5051167;28;20033;-76
2022/03/18 11:56:53;;;;;;;23.67;6.75;;;17.90;99.90;;;;;;5048428;28;20037;-76
2022/03/18 11:59:27;;;;;;;17.83;5.93;;;17.90;99.90;;;;;;5053183;28;20558;-76
2022/03/18 12:02:02;;;;;;;16.05;6.18;;;18.00;99.90;;;;;;5049038;28;20125;-75
2022/03/18 12:04:39;;;;;;;16.23;6.22;;;17.90;99.90;;;;;;5044597;28;20041;-76
2022/03/18 12:07:09;;;;;;;20.30;6.30;;;17.90;99.90;;;;;;5031439;28;20040;-77
2022/03/18 12:10:04;;;;;;;18.30;6.43;;;17.70;99.90;;;;;;5046231;28;20029;-75
2022/03/18 12:12:30;;;;;;;15.60;6.47;;;17.50;99.90;;;;;;5049336;28;20040;-76
2022/03/18 12:14:58;;;;;;;17.30;5.95;;;17.30;99.90;;;;;;5053244;28;20036;-76
2022/03/18 12:17:25;;;;;;;20.85;5.72;;;17.20;99.90;;;;;;5056146;28;20048;-76
2022/03/18 12:19:54;;;;;;;23.60;6.80;;;17.20;99.90;;;;;;5055063;28;20043;-75
2022/03/18 12:22:22;;;;;;;19.90;5.78;;;17.20;99.90;;;;;;5025080;28;20788;-78
2022/03/18 12:24:51;;;;;;;15.68;6.05;;;17.10;99.90;;;;;;5045032;28;20447;-76
2022/03/18 12:27:19;;;;;;;16.48;5.90;;;17.10;99.90;;;;;;5045294;28;20086;-76
2022/03/18 12:29:45;;;;;;;20.45;6.18;;;16.90;99.90;;;;;;5050548;28;20075;-76
2022/03/18 12:32:13;;;;;;;18.75;6.13;;;16.80;99.90;;;;;;5048367;28;20057;-75
2022/03/18 12:34:53;;;;;;;17.20;5.72;;;16.90;99.90;;;;;;5049082;28;20048;-76
2022/03/18 12:37:24;;;;;;;17.05;6.60;;;16.60;99.90;;;;;;5049783;28;20044;-76
2022/03/18 12:40:01;;;;;;;20.65;7.25;;;16.50;99.90;;;;;;5060120;28;20047;-75
2022/03/18 12:42:28;;;;;;;24.13;6.55;;;16.40;99.90;;;;;;5048323;28;20051;-75
2022/03/18 12:45:01;;;;;;;24.65;6.70;;;16.30;99.90;;;;;;5050201;28;20131;-76
2022/03/18 12:47:31;;;;;;;20.33;6.40;;;16.30;99.90;;;;;;5034316;28;20048;-76
2022/03/18 12:50:00;;;;;;;27.88;6.82;;;16.20;99.90;;;;;;5057444;28;20041;-75
2022/03/18 12:52:27;;;;;;;27.83;7.00;;;16.10;99.90;;;;;;5056496;28;20743;-75
2022/03/18 12:55:09;;;;;;;19.00;6.10;;;16.00;99.90;;;;;;5070964;28;20045;-75
2022/03/18 12:57:38;;;;;;;20.70;6.88;;;16.00;99.90;;;;;;5051550;28;20440;-75
2022/03/18 13:00:11;;;;;;;25.08;6.78;;;16.00;99.90;;;;;;5030041;28;20052;-75
2022/03/18 13:02:37;;;;;;;;;;;16.00;99.90;;;;;;5057494;28;20037;-76